createdAt,value
2023-03-23T00:01:20.099Z,64
2023-03-23T00:04:20.070Z,64
2023-03-23T00:07:20.052Z,64
2023-03-23T00:10:20.070Z,64
2023-03-23T00:13:20.048Z,64
2023-03-23T00:16:20.070Z,64
2023-03-23T00:19:20.058Z,64
2023-03-23T00:22:20.045Z,64
2023-03-23T00:25:20.106Z,64
2023-03-23T00:28:20.064Z,65
2023-03-23T00:31:20.044Z,65
2023-03-23T00:34:20.058Z,65
2023-03-23T00:37:20.042Z,65
2023-03-23T00:40:20.079Z,65
2023-03-23T00:43:20.038Z,65
2023-03-23T00:46:20.039Z,65
2023-03-23T00:49:20.052Z,65
2023-03-23T00:52:20.036Z,65
2023-03-23T00:55:20.066Z,65
2023-03-23T00:58:20.032Z,65
2023-03-23T01:01:20.045Z,65
2023-03-23T01:04:20.062Z,65
2023-03-23T01:07:20.037Z,65
2023-03-23T01:10:20.058Z,65
2023-03-23T01:13:20.030Z,65
2023-03-23T01:16:20.028Z,65
2023-03-23T01:19:20.051Z,65
2023-03-23T01:22:20.044Z,65
2023-03-23T01:25:20.040Z,65
2023-03-23T01:31:20.057Z,65
2023-03-23T01:34:20.044Z,65
2023-03-23T01:37:20.040Z,65
2023-03-23T01:40:20.048Z,65
2023-03-23T01:43:20.026Z,65
2023-03-23T01:46:20.022Z,65
2023-03-23T01:49:20.027Z,65
2023-03-23T01:52:20.046Z,65
2023-03-23T01:55:20.073Z,65
2023-03-23T01:58:20.037Z,65
2023-03-23T02:01:20.039Z,65
2023-03-23T02:04:20.051Z,65
2023-03-23T02:07:20.039Z,65
2023-03-23T02:10:20.052Z,65
2023-03-23T02:13:20.035Z,65
2023-03-23T02:16:20.095Z,65
2023-03-23T02:19:20.059Z,65
2023-03-23T02:22:20.031Z,65
2023-03-23T02:25:20.048Z,65
2023-03-23T02:28:20.041Z,65
2023-03-23T02:31:20.030Z,65
2023-03-23T02:34:20.047Z,65
2023-03-23T02:37:20.022Z,65
2023-03-23T02:40:20.057Z,65
2023-03-23T02:43:20.019Z,65
2023-03-23T02:46:20.025Z,65
2023-03-23T02:49:20.021Z,65
2023-03-23T02:52:20.023Z,66
2023-03-23T02:55:20.027Z,66
2023-03-23T02:58:20.020Z,66
2023-03-23T03:01:20.019Z,67
2023-03-23T03:04:20.029Z,67
2023-03-23T03:07:20.022Z,67
2023-03-23T03:10:20.026Z,67
2023-03-23T03:13:20.016Z,68
2023-03-23T03:16:20.008Z,68
2023-03-23T03:19:20.025Z,68
2023-03-23T03:22:20.020Z,68
2023-03-23T03:25:20.047Z,68
2023-03-23T03:28:20.006Z,69
2023-03-23T03:31:20.014Z,69
2023-03-23T03:34:20.025Z,69
2023-03-23T03:37:20.024Z,69
2023-03-23T03:40:20.022Z,69
2023-03-23T03:43:20.011Z,70
2023-03-23T03:46:20.011Z,70
2023-03-23T03:49:20.003Z,70
2023-03-23T03:52:20.011Z,70
2023-03-23T03:55:20.030Z,71
2023-03-23T03:58:20.057Z,71
2023-03-23T04:01:20.020Z,71
2023-03-23T04:04:20.035Z,71
2023-03-23T04:07:20.007Z,71
2023-03-23T04:10:32.588Z,71
2023-03-23T04:13:20.015Z,71
2023-03-23T04:16:20.034Z,71
2023-03-23T04:19:20.008Z,71
2023-03-23T04:22:20.036Z,71
2023-03-23T04:28:20.048Z,71
2023-03-23T04:31:20.017Z,71
2023-03-23T04:34:20.013Z,71
2023-03-23T04:37:20.011Z,72
2023-03-23T04:40:20.033Z,72
2023-03-23T04:43:19.997Z,72
2023-03-23T04:46:20.000Z,72
2023-03-23T04:49:20.023Z,72
2023-03-23T04:52:19.999Z,72
2023-03-23T04:55:20.012Z,72
2023-03-23T04:58:19.996Z,72
2023-03-23T05:01:19.997Z,72
2023-03-23T05:04:20.005Z,72
2023-03-23T05:07:19.999Z,72
2023-03-23T05:10:24.623Z,72
2023-03-23T05:13:20.003Z,72
2023-03-23T05:16:20.009Z,72
2023-03-23T05:19:20.216Z,72
2023-03-23T05:22:19.994Z,72
2023-03-23T05:25:20.019Z,72
2023-03-23T05:28:20.007Z,72
2023-03-23T05:31:20.005Z,72
2023-03-23T05:34:19.994Z,73
2023-03-23T05:37:19.993Z,73
2023-03-23T05:40:19.992Z,73
2023-03-23T05:43:19.982Z,73
2023-03-23T05:46:19.985Z,73
2023-03-23T05:49:19.988Z,73
2023-03-23T05:52:19.980Z,73
2023-03-23T05:55:20.010Z,73
2023-03-23T05:58:19.982Z,73
2023-03-23T06:01:19.986Z,73
2023-03-23T06:04:19.990Z,73
2023-03-23T06:07:19.997Z,73
2023-03-23T06:10:19.985Z,74
2023-03-23T06:13:19.977Z,74
2023-03-23T06:16:19.969Z,74
2023-03-23T06:19:19.986Z,74
2023-03-23T06:22:19.971Z,74
2023-03-23T06:25:19.976Z,74
2023-03-23T06:28:19.979Z,74
2023-03-23T06:31:19.961Z,74
2023-03-23T06:34:19.979Z,74
2023-03-23T06:37:19.983Z,74
2023-03-23T06:40:19.982Z,74
2023-03-23T06:43:19.979Z,74
2023-03-23T06:46:19.963Z,74
2023-03-23T06:49:21.120Z,74
2023-03-23T06:52:19.960Z,74
2023-03-23T06:55:19.980Z,74
2023-03-23T06:58:19.958Z,75
2023-03-23T07:01:19.970Z,75
2023-03-23T07:04:19.957Z,75
2023-03-23T07:10:19.969Z,75
2023-03-23T07:13:19.961Z,75
2023-03-23T07:16:20.209Z,75
2023-03-23T07:19:19.983Z,75
2023-03-23T07:22:19.974Z,75
2023-03-23T07:25:19.995Z,75
2023-03-23T07:28:19.981Z,75
2023-03-23T07:31:19.964Z,75
2023-03-23T07:34:19.974Z,75
2023-03-23T07:37:19.965Z,75
2023-03-23T07:40:19.978Z,75
2023-03-23T07:43:19.966Z,75
2023-03-23T07:46:19.964Z,75
2023-03-23T07:49:19.979Z,76
2023-03-23T07:52:19.976Z,76
2023-03-23T07:55:19.971Z,76
2023-03-23T07:58:19.963Z,76
2023-03-23T08:01:19.966Z,76
2023-03-23T08:04:19.975Z,76
2023-03-23T08:07:20.108Z,76
2023-03-23T08:10:19.960Z,76
2023-03-23T08:13:20.005Z,76
2023-03-23T08:16:19.959Z,76
2023-03-23T08:19:19.997Z,76
2023-03-23T08:22:19.955Z,76
2023-03-23T08:25:19.961Z,76
2023-03-23T08:28:19.949Z,76
2023-03-23T08:34:19.949Z,76
2023-03-23T08:37:19.962Z,76
2023-03-23T08:40:19.985Z,76
2023-03-23T08:43:19.948Z,76
2023-03-23T08:46:20.016Z,76
2023-03-23T08:49:19.951Z,76
2023-03-23T08:52:19.960Z,76
2023-03-23T08:55:21.304Z,76
2023-03-23T08:58:19.945Z,76
2023-03-23T09:01:19.967Z,76
2023-03-23T09:04:19.944Z,76
2023-03-23T09:07:20.084Z,76
2023-03-23T09:10:19.950Z,76
2023-03-23T09:13:19.969Z,76
2023-03-23T09:16:19.970Z,76
2023-03-23T09:19:19.947Z,76
2023-03-23T09:22:19.944Z,76
2023-03-23T09:25:19.949Z,76
2023-03-23T09:28:19.938Z,76
2023-03-23T09:31:20.602Z,76
2023-03-23T09:37:19.937Z,76
2023-03-23T09:40:19.956Z,76
2023-03-23T09:43:19.943Z,76
2023-03-23T09:46:19.936Z,76
2023-03-23T09:49:19.938Z,76
2023-03-23T09:52:19.940Z,76
2023-03-23T09:55:19.930Z,76
2023-03-23T09:58:19.929Z,76
2023-03-23T10:01:19.939Z,75
2023-03-23T10:04:19.929Z,75
2023-03-23T10:10:19.929Z,75
2023-03-23T10:13:19.946Z,75
2023-03-23T10:16:19.928Z,75
2023-03-23T10:19:19.930Z,75
2023-03-23T10:22:19.928Z,75
2023-03-23T10:25:19.942Z,75
2023-03-23T10:28:19.930Z,75
2023-03-23T10:31:19.939Z,75
2023-03-23T10:34:19.927Z,75
2023-03-23T10:37:19.922Z,75
2023-03-23T10:40:21.957Z,75
2023-03-23T10:43:19.938Z,75
2023-03-23T10:46:29.862Z,75
2023-03-23T10:49:19.915Z,75
2023-03-23T10:52:19.924Z,75
2023-03-23T10:55:20.085Z,74
2023-03-23T10:58:20.200Z,74
2023-03-23T11:01:19.935Z,74
2023-03-23T11:04:19.918Z,74
2023-03-23T11:07:19.921Z,74
2023-03-23T11:10:19.934Z,74
2023-03-23T11:13:19.919Z,74
2023-03-23T11:16:19.922Z,74
2023-03-23T11:19:19.920Z,74
2023-03-23T11:22:19.918Z,74
2023-03-23T11:28:19.912Z,74
2023-03-23T11:31:19.920Z,74
2023-03-23T11:34:19.915Z,74
2023-03-23T11:37:19.909Z,74
2023-03-23T11:40:19.907Z,74
2023-03-23T11:43:19.911Z,74
2023-03-23T11:46:19.954Z,74
2023-03-23T11:49:25.498Z,74
2023-03-23T11:52:19.923Z,74
2023-03-23T11:55:19.957Z,74
2023-03-23T11:58:19.917Z,74
2023-03-23T12:01:20.356Z,74
2023-03-23T12:04:19.904Z,73
2023-03-23T12:07:19.904Z,73
2023-03-23T12:13:20.992Z,73
2023-03-23T12:16:19.898Z,73
2023-03-23T12:19:19.900Z,73
2023-03-23T12:22:19.896Z,73
2023-03-23T12:25:19.902Z,73
2023-03-23T12:28:19.916Z,73
2023-03-23T12:31:19.894Z,73
2023-03-23T12:34:19.915Z,72
2023-03-23T12:37:19.888Z,72
2023-03-23T12:40:19.903Z,73
2023-03-23T12:43:19.882Z,73
2023-03-23T12:46:19.885Z,73
2023-03-23T12:49:19.887Z,73
2023-03-23T12:52:19.887Z,73
2023-03-23T12:55:19.881Z,72
2023-03-23T12:58:19.889Z,72
2023-03-23T13:01:19.888Z,72
2023-03-23T13:04:19.889Z,72
2023-03-23T13:07:19.883Z,72
2023-03-23T13:10:19.887Z,72
2023-03-23T13:13:21.035Z,72
2023-03-23T13:16:19.899Z,72
2023-03-23T13:19:19.879Z,72
2023-03-23T13:22:19.922Z,72
2023-03-23T13:25:19.923Z,72
2023-03-23T13:28:19.878Z,72
2023-03-23T13:31:19.921Z,72
2023-03-23T13:34:19.877Z,71
2023-03-23T13:37:19.877Z,72
2023-03-23T13:40:19.895Z,71
2023-03-23T13:43:19.883Z,71
2023-03-23T13:46:19.870Z,71
2023-03-23T13:49:20.063Z,71
2023-03-23T13:52:20.002Z,71
2023-03-23T13:55:19.945Z,71
2023-03-23T13:58:19.871Z,71
2023-03-23T14:01:19.874Z,71
2023-03-23T14:04:19.865Z,71
2023-03-23T14:07:19.905Z,71
2023-03-23T14:10:19.892Z,71
2023-03-23T14:13:19.871Z,71
2023-03-23T14:16:19.864Z,71
2023-03-23T14:19:19.869Z,71
2023-03-23T14:22:19.861Z,71
2023-03-23T14:25:19.913Z,71
2023-03-23T14:28:19.851Z,71
2023-03-23T14:31:19.885Z,71
2023-03-23T14:34:19.869Z,72
2023-03-23T14:37:19.866Z,72
2023-03-23T14:40:19.854Z,72
2023-03-23T14:43:19.860Z,72
2023-03-23T14:46:19.865Z,72
2023-03-23T14:49:19.880Z,72
2023-03-23T14:52:19.854Z,72
2023-03-23T14:55:19.855Z,72
2023-03-23T14:58:19.857Z,72
2023-03-23T15:01:19.874Z,72
2023-03-23T15:04:19.846Z,72
2023-03-23T15:07:19.853Z,72
2023-03-23T15:13:19.852Z,72
2023-03-23T15:16:19.851Z,72
2023-03-23T15:19:19.847Z,72
2023-03-23T15:22:19.861Z,72
2023-03-23T15:25:19.852Z,72
2023-03-23T15:28:19.857Z,72
2023-03-23T15:34:19.852Z,71
2023-03-23T15:40:19.852Z,71
2023-03-23T15:43:19.859Z,71
2023-03-23T15:46:19.859Z,71
2023-03-23T15:49:19.852Z,71
2023-03-23T15:52:19.862Z,71
2023-03-23T15:55:19.846Z,71
2023-03-23T15:58:19.882Z,71
2023-03-23T16:01:19.897Z,71
2023-03-23T16:04:19.883Z,71
2023-03-23T16:07:19.846Z,72
2023-03-23T16:10:19.849Z,72
2023-03-23T16:13:19.844Z,72
2023-03-23T16:16:19.875Z,72
2023-03-23T16:19:19.839Z,72
2023-03-23T16:22:19.845Z,72
2023-03-23T16:25:19.878Z,72
2023-03-23T16:28:19.846Z,72
2023-03-23T16:31:19.878Z,72
2023-03-23T16:34:19.840Z,73
2023-03-23T16:37:19.872Z,73
2023-03-23T16:40:19.839Z,73
2023-03-23T16:43:19.834Z,73
2023-03-23T16:46:19.854Z,73
2023-03-23T16:49:19.861Z,73
2023-03-23T16:52:19.849Z,74
2023-03-23T16:55:19.832Z,74
2023-03-23T16:58:19.831Z,74
2023-03-23T17:01:19.852Z,74
2023-03-23T17:04:19.831Z,74
2023-03-23T17:07:19.845Z,74
2023-03-23T17:10:19.831Z,74
2023-03-23T17:13:19.825Z,74
2023-03-23T17:16:19.850Z,74
2023-03-23T17:19:19.821Z,74
2023-03-23T17:22:19.831Z,75
2023-03-23T17:25:19.841Z,75
2023-03-23T17:31:19.828Z,75
2023-03-23T17:34:19.921Z,75
2023-03-23T17:37:19.811Z,75
2023-03-23T17:40:19.812Z,75
2023-03-23T17:43:19.822Z,75
2023-03-23T17:46:19.849Z,75
2023-03-23T17:49:19.813Z,75
2023-03-23T17:52:19.810Z,75
2023-03-23T17:55:19.824Z,75
2023-03-23T17:58:19.813Z,75
2023-03-23T18:01:19.829Z,75
2023-03-23T18:04:19.815Z,75
2023-03-23T18:07:19.817Z,75
2023-03-23T18:10:19.826Z,75
2023-03-23T18:13:19.842Z,75
2023-03-23T18:16:19.854Z,75
2023-03-23T18:19:19.850Z,75
2023-03-23T18:22:19.835Z,75
2023-03-23T18:25:19.829Z,75
2023-03-23T18:28:19.829Z,75
2023-03-23T18:31:19.883Z,75
2023-03-23T18:34:19.832Z,75
2023-03-23T18:37:19.838Z,75
2023-03-23T18:40:19.845Z,75
2023-03-23T18:43:19.843Z,75
2023-03-23T18:46:19.843Z,75
2023-03-23T18:49:19.817Z,75
2023-03-23T18:52:19.872Z,75
2023-03-23T18:55:20.940Z,75
2023-03-23T18:58:19.845Z,75
2023-03-23T19:01:19.861Z,75
2023-03-23T19:04:19.814Z,75
2023-03-23T19:07:19.939Z,76
2023-03-23T19:10:19.820Z,76
2023-03-23T19:13:19.816Z,76
2023-03-23T19:16:19.838Z,76
2023-03-23T19:19:19.821Z,76
2023-03-23T19:22:19.828Z,76
2023-03-23T19:31:19.892Z,76
2023-03-23T19:34:19.827Z,76
2023-03-23T19:37:19.848Z,76
2023-03-23T19:40:36.487Z,76
2023-03-23T19:43:19.807Z,76
2023-03-23T19:46:19.856Z,76
2023-03-23T19:49:20.044Z,76
2023-03-23T19:55:19.801Z,76
2023-03-23T19:58:19.834Z,76
2023-03-23T20:01:19.865Z,76
2023-03-23T20:04:19.801Z,76
2023-03-23T20:07:21.279Z,76
2023-03-23T20:10:19.812Z,76
2023-03-23T20:13:19.798Z,76
2023-03-23T20:16:19.798Z,76
2023-03-23T20:19:19.811Z,76
2023-03-23T20:25:19.938Z,76
2023-03-23T20:28:19.801Z,76
2023-03-23T20:31:23.727Z,76
2023-03-23T20:34:19.791Z,76
2023-03-23T20:37:19.804Z,76
2023-03-23T20:40:19.787Z,76
2023-03-23T20:43:19.796Z,76
2023-03-23T20:46:19.788Z,76
2023-03-23T20:49:19.800Z,76
2023-03-23T20:52:19.816Z,76
2023-03-23T20:55:19.797Z,76
2023-03-23T20:58:19.801Z,76
2023-03-23T21:01:19.816Z,76
2023-03-23T21:04:19.787Z,76
2023-03-23T21:07:19.795Z,77
2023-03-23T21:10:19.804Z,77
2023-03-23T21:13:19.783Z,77
2023-03-23T21:16:19.777Z,77
2023-03-23T21:19:19.820Z,77
2023-03-23T21:22:19.818Z,77
2023-03-23T21:25:19.779Z,77
2023-03-23T21:28:19.781Z,77
2023-03-23T21:31:19.770Z,77
2023-03-23T21:34:19.782Z,77
2023-03-23T21:37:19.785Z,77
2023-03-23T21:40:19.770Z,77
2023-03-23T21:43:19.772Z,77
2023-03-23T21:46:19.794Z,77
2023-03-23T21:49:19.768Z,78
2023-03-23T21:52:19.770Z,78
2023-03-23T21:55:19.773Z,78
2023-03-23T21:58:19.764Z,78
2023-03-23T22:01:19.818Z,77
2023-03-23T22:04:19.779Z,77
2023-03-23T22:07:19.770Z,77
2023-03-23T22:10:19.760Z,77
2023-03-23T22:13:19.790Z,77
2023-03-23T22:16:19.790Z,77
2023-03-23T22:19:19.765Z,77
2023-03-23T22:22:19.760Z,77
2023-03-23T22:25:19.764Z,77
2023-03-23T22:28:19.796Z,77
2023-03-23T22:31:19.822Z,77
2023-03-23T22:34:19.778Z,77
2023-03-23T22:37:19.771Z,77
2023-03-23T22:40:19.784Z,77
2023-03-23T22:43:19.781Z,77
2023-03-23T22:46:19.783Z,77
2023-03-23T22:49:19.777Z,77
2023-03-23T22:52:19.770Z,77
2023-03-23T22:55:19.769Z,77
2023-03-23T22:58:19.776Z,77
2023-03-23T23:01:19.794Z,77
2023-03-23T23:04:19.790Z,77
2023-03-23T23:07:19.770Z,77
2023-03-23T23:10:19.763Z,77
2023-03-23T23:13:19.781Z,77
2023-03-23T23:16:19.784Z,77
2023-03-23T23:19:19.760Z,77
2023-03-23T23:22:19.763Z,77
2023-03-23T23:25:19.754Z,77
2023-03-23T23:31:19.766Z,78
2023-03-23T23:34:19.756Z,78
2023-03-23T23:37:19.762Z,78
2023-03-23T23:40:19.768Z,78
2023-03-23T23:43:19.753Z,78
2023-03-23T23:46:19.756Z,78
2023-03-23T23:49:19.744Z,78
2023-03-23T23:52:19.752Z,79
2023-03-23T23:55:19.739Z,79
2023-03-23T23:58:19.746Z,79
